Time;durP1;ratioP1;P1;durP2;ratioP2;P2;SDS_P1;SDS_P2;PMS_P1;PMS_P2;Temp;Humidity;BMP_temperature;BMP_pressure;BME280_temperature;BME280_humidity;BME280_pressure;Samples;Min_cycle;Max_cycle;Signal;HPM_P1;HPM_P2
2023/03/06 00:01:47;;;;;;;6.60;5.03;;;4.90;92.70;;;;;;5071737;28;20209;-72
2023/03/06 00:04:14;;;;;;;10.13;5.50;;;4.90;92.70;;;;;;5070518;28;20678;-72
2023/03/06 00:06:40;;;;;;;7.07;5.37;;;4.80;92.50;;;;;;5071754;28;20631;-71
2023/03/06 00:09:06;;;;;;;5.90;4.40;;;4.70;92.70;;;;;;5071805;28;20568;-76
2023/03/06 00:11:32;;;;;;;8.27;5.27;;;4.70;92.50;;;;;;5070372;28;20177;-72
2023/03/06 00:13:58;;;;;;;5.70;4.70;;;4.80;92.60;;;;;;5072104;28;20228;-71
2023/03/06 00:16:24;;;;;;;5.83;4.83;;;4.80;92.50;;;;;;5070876;28;20235;-72
2023/03/06 00:18:50;;;;;;;7.27;5.00;;;4.80;92.60;;;;;;5071832;28;20705;-74
2023/03/06 00:21:16;;;;;;;6.33;4.90;;;4.80;92.50;;;;;;5071246;28;20281;-73
2023/03/06 00:23:42;;;;;;;7.30;5.10;;;4.80;92.70;;;;;;5075003;28;20213;-73
2023/03/06 00:26:09;;;;;;;6.87;5.17;;;4.80;92.50;;;;;;5072372;28;20296;-71
2023/03/06 00:28:35;;;;;;;7.20;4.87;;;4.80;92.50;;;;;;5072435;28;20190;-77
2023/03/06 00:31:02;;;;;;;5.60;4.40;;;4.90;92.60;;;;;;5071706;28;20182;-71
2023/03/06 00:33:28;;;;;;;7.90;5.37;;;4.90;92.50;;;;;;5071586;28;20170;-75
2023/03/06 00:35:53;;;;;;;6.20;5.30;;;4.90;92.50;;;;;;5071541;28;20178;-73
2023/03/06 00:38:19;;;;;;;5.37;4.73;;;4.80;92.50;;;;;;5071335;28;20262;-71
2023/03/06 00:40:45;;;;;;;8.07;4.50;;;4.90;92.70;;;;;;5070775;28;20247;-74
2023/03/06 00:43:11;;;;;;;6.97;5.10;;;4.90;92.50;;;;;;5071210;28;20312;-71
2023/03/06 00:45:37;;;;;;;6.13;4.83;;;4.90;92.60;;;;;;5071966;28;20209;-72
2023/03/06 00:48:03;;;;;;;6.60;4.67;;;4.90;92.60;;;;;;5072286;28;20568;-71
2023/03/06 00:50:29;;;;;;;5.80;4.90;;;4.90;92.90;;;;;;5081554;28;20175;-71
2023/03/06 00:52:55;;;;;;;8.33;4.73;;;4.90;92.80;;;;;;5080364;28;20189;-78
2023/03/06 00:55:21;;;;;;;7.27;4.83;;;5.00;92.60;;;;;;5076870;28;20175;-72
2023/03/06 00:57:47;;;;;;;7.00;4.80;;;5.00;92.60;;;;;;5076868;28;20178;-78
2023/03/06 01:00:13;;;;;;;7.53;5.27;;;5.00;92.50;;;;;;5075211;28;20190;-72
2023/03/06 01:02:39;;;;;;;7.70;4.83;;;4.90;92.50;;;;;;5075038;28;20175;-73
2023/03/06 01:05:06;;;;;;;8.10;4.90;;;4.90;92.70;;;;;;5075187;28;20228;-72
2023/03/06 01:07:35;;;;;;;10.77;5.80;;;4.90;92.70;;;;;;5074812;28;20178;-71
2023/03/06 01:10:01;;;;;;;6.83;4.77;;;4.90;92.40;;;;;;5075095;28;20258;-75
2023/03/06 01:12:27;;;;;;;5.23;4.43;;;5.00;92.60;;;;;;5074910;28;20167;-71
2023/03/06 01:14:53;;;;;;;7.80;4.80;;;4.90;92.50;;;;;;5074952;28;20282;-73
2023/03/06 01:17:19;;;;;;;6.03;4.63;;;4.80;92.50;;;;;;5074639;28;20186;-77
2023/03/06 01:19:44;;;;;;;6.10;4.97;;;4.70;92.80;;;;;;5074812;28;20167;-76
2023/03/06 01:22:10;;;;;;;6.67;5.00;;;4.80;92.80;;;;;;5074587;28;20166;-76
2023/03/06 01:24:36;;;;;;;6.57;4.87;;;4.80;92.60;;;;;;5074476;28;20238;-78
2023/03/06 01:27:02;;;;;;;9.27;4.90;;;4.70;92.80;;;;;;5074570;28;20659;-74
2023/03/06 01:29:27;;;;;;;7.10;5.40;;;4.90;92.70;;;;;;5074400;28;20178;-75
2023/03/06 01:31:53;;;;;;;6.20;4.47;;;4.80;92.40;;;;;;5074209;28;20171;-72
2023/03/06 01:34:19;;;;;;;7.13;4.60;;;4.70;92.50;;;;;;5074673;28;20198;-72
2023/03/06 01:36:45;;;;;;;5.43;4.90;;;4.80;92.70;;;;;;5074149;28;20251;-72
2023/03/06 01:39:10;;;;;;;6.37;4.97;;;4.70;92.70;;;;;;5074554;28;20258;-75
2023/03/06 01:41:37;;;;;;;6.20;5.10;;;4.70;92.90;;;;;;5074116;28;20186;-71
2023/03/06 01:44:03;;;;;;;7.77;4.80;;;4.70;92.60;;;;;;5074167;28;20292;-72
2023/03/06 01:46:31;;;;;;;8.20;4.50;;;4.70;92.70;;;;;;5072928;28;20642;-77
2023/03/06 01:49:01;;;;;;;6.30;5.07;;;4.60;92.70;;;;;;5074298;28;20669;-73
2023/03/06 01:51:35;;;;;;;6.27;4.83;;;4.60;92.70;;;;;;5074076;28;20166;-71
2023/03/06 01:54:07;;;;;;;8.50;5.07;;;4.70;92.70;;;;;;5074109;28;20170;-76
2023/03/06 01:56:33;;;;;;;7.90;5.47;;;4.70;92.60;;;;;;5073877;28;20588;-74
2023/03/06 01:59:00;;;;;;;6.67;5.33;;;4.70;92.60;;;;;;5073816;28;20190;-71
2023/03/06 02:01:26;;;;;;;6.70;4.70;;;4.70;92.60;;;;;;5073668;28;20258;-71
2023/03/06 02:03:54;;;;;;;9.30;5.23;;;4.80;92.80;;;;;;5073781;28;20678;-74
2023/03/06 02:06:20;;;;;;;7.03;4.87;;;4.80;92.70;;;;;;5072692;28;20262;-71
2023/03/06 02:08:50;;;;;;;6.10;4.53;;;4.80;92.70;;;;;;5072526;28;20221;-71
2023/03/06 02:11:19;;;;;;;6.53;4.67;;;4.60;92.80;;;;;;5074146;28;20160;-71
2023/03/06 02:13:46;;;;;;;6.83;5.43;;;4.60;92.80;;;;;;5073719;28;20168;-71
2023/03/06 02:16:13;;;;;;;5.70;4.97;;;4.60;93.00;;;;;;5073825;28;20175;-72
2023/03/06 02:18:41;;;;;;;7.40;5.10;;;4.70;93.10;;;;;;5073572;28;20222;-72
2023/03/06 02:21:10;;;;;;;7.27;5.07;;;4.70;92.90;;;;;;5073684;28;20201;-70
2023/03/06 02:23:56;;;;;;;6.03;5.17;;;4.70;92.90;;;;;;5073928;28;20296;-72
2023/03/06 02:26:24;;;;;;;4.80;4.40;;;4.80;92.80;;;;;;5074444;28;20206;-72
2023/03/06 02:28:50;;;;;;;7.77;5.53;;;4.80;92.80;;;;;;5076988;28;20257;-70
2023/03/06 02:31:23;;;;;;;8.10;5.03;;;4.70;92.70;;;;;;5079728;28;20536;-73
2023/03/06 02:34:01;;;;;;;6.77;4.73;;;4.70;92.90;;;;;;5078626;28;20178;-72
2023/03/06 02:36:27;;;;;;;7.50;5.20;;;4.60;92.90;;;;;;5075028;28;20199;-73
2023/03/06 02:38:53;;;;;;;8.73;5.33;;;4.60;92.80;;;;;;5074090;28;20186;-72
2023/03/06 02:41:19;;;;;;;6.67;5.23;;;4.60;92.90;;;;;;5073599;28;20688;-75
2023/03/06 02:43:48;;;;;;;6.80;4.67;;;4.60;93.00;;;;;;5072991;28;20763;-74
2023/03/06 02:46:14;;;;;;;7.67;4.90;;;4.60;93.00;;;;;;5071704;28;20719;-71
2023/03/06 02:48:39;;;;;;;8.93;5.30;;;4.80;93.10;;;;;;5072886;28;20210;-80
2023/03/06 02:51:05;;;;;;;8.97;5.60;;;4.80;92.90;;;;;;5073107;28;20190;-81
2023/03/06 02:53:31;;;;;;;8.53;5.23;;;4.80;93.00;;;;;;5073327;28;20175;-80
2023/03/06 02:55:57;;;;;;;8.27;5.13;;;4.70;92.80;;;;;;5073296;28;20174;-82
2023/03/06 02:58:23;;;;;;;6.63;4.77;;;4.70;93.20;;;;;;5073692;28;20235;-76
2023/03/06 03:00:48;;;;;;;5.40;4.90;;;4.70;92.90;;;;;;5073293;28;20182;-73
2023/03/06 03:03:14;;;;;;;7.43;5.53;;;4.80;92.90;;;;;;5072862;28;20179;-79
2023/03/06 03:05:40;;;;;;;7.53;5.27;;;4.80;93.20;;;;;;5071450;28;20277;-77
2023/03/06 03:08:06;;;;;;;7.83;5.40;;;4.80;93.10;;;;;;5072790;28;20163;-71
2023/03/06 03:10:32;;;;;;;5.67;5.00;;;4.80;93.20;;;;;;5070923;28;20261;-73
2023/03/06 03:12:58;;;;;;;7.07;4.97;;;4.80;93.10;;;;;;5072253;28;20163;-77
2023/03/06 03:15:24;;;;;;;5.67;4.70;;;4.90;93.10;;;;;;5072086;28;20557;-73
2023/03/06 03:17:50;;;;;;;5.83;4.83;;;4.90;93.10;;;;;;5072062;28;20184;-70
2023/03/06 03:20:19;;;;;;;8.37;5.93;;;4.90;93.20;;;;;;5072262;28;20171;-72
2023/03/06 03:22:50;;;;;;;6.70;5.10;;;4.90;93.00;;;;;;5072194;28;20186;-71
2023/03/06 03:25:16;;;;;;;7.43;5.43;;;4.90;92.90;;;;;;5072147;28;20222;-79
2023/03/06 03:27:42;;;;;;;7.17;5.40;;;4.80;93.10;;;;;;5071763;28;20182;-71
2023/03/06 03:30:09;;;;;;;5.47;4.70;;;4.80;93.10;;;;;;5072156;28;20179;-74
2023/03/06 03:32:35;;;;;;;7.73;5.47;;;4.70;93.10;;;;;;5072146;28;20182;-74
2023/03/06 03:35:01;;;;;;;9.27;5.43;;;4.60;93.30;;;;;;5071573;28;20181;-75
2023/03/06 03:37:26;;;;;;;7.57;5.07;;;4.60;93.20;;;;;;5070913;28;20316;-72
2023/03/06 03:39:52;;;;;;;7.60;4.90;;;4.60;93.20;;;;;;5072180;28;20171;-78
2023/03/06 03:42:18;;;;;;;7.40;5.03;;;4.70;93.40;;;;;;5072116;28;20232;-72
2023/03/06 03:44:45;;;;;;;7.93;5.20;;;4.80;93.20;;;;;;5072163;28;20565;-74
2023/03/06 03:47:11;;;;;;;7.03;5.47;;;4.90;93.20;;;;;;5071912;28;20262;-77
2023/03/06 03:49:37;;;;;;;8.73;5.40;;;4.80;93.20;;;;;;5072283;28;20195;-75
2023/03/06 03:52:03;;;;;;;8.30;5.57;;;4.80;93.20;;;;;;5072060;28;20171;-72
2023/03/06 03:54:29;;;;;;;7.27;5.17;;;4.90;93.10;;;;;;5071743;28;20182;-71
2023/03/06 03:56:55;;;;;;;6.40;5.17;;;4.80;93.20;;;;;;5071960;28;20167;-72
2023/03/06 03:59:21;;;;;;;7.80;5.03;;;4.90;93.20;;;;;;5070559;28;20263;-72
2023/03/06 04:01:47;;;;;;;7.63;5.20;;;4.90;93.00;;;;;;5072239;28;20179;-74
2023/03/06 04:04:13;;;;;;;8.57;4.77;;;4.80;93.00;;;;;;5072175;28;20260;-71
2023/03/06 04:06:38;;;;;;;7.23;4.87;;;4.80;93.20;;;;;;5072816;28;20163;-71
2023/03/06 04:09:04;;;;;;;8.43;5.67;;;4.80;93.30;;;;;;5078420;28;20170;-72
2023/03/06 04:11:30;;;;;;;6.97;5.23;;;4.90;93.30;;;;;;5076623;28;20637;-81
2023/03/06 04:13:56;;;;;;;6.13;5.27;;;4.90;93.20;;;;;;5072787;28;20209;-78
2023/03/06 04:16:21;;;;;;;9.03;5.53;;;4.90;93.40;;;;;;5071923;28;20254;-71
2023/03/06 04:18:47;;;;;;;6.57;5.20;;;4.80;93.30;;;;;;5071880;28;20172;-71
2023/03/06 04:21:13;;;;;;;7.80;5.53;;;4.90;93.20;;;;;;5071748;28;20171;-74
2023/03/06 04:23:39;;;;;;;6.87;5.00;;;4.90;93.40;;;;;;5073108;28;20640;-75
2023/03/06 04:26:05;;;;;;;6.70;5.23;;;4.90;93.20;;;;;;5071805;28;20179;-72
2023/03/06 04:28:30;;;;;;;8.20;5.00;;;5.00;92.90;;;;;;5072811;28;20525;-71
2023/03/06 04:30:56;;;;;;;8.47;5.33;;;4.90;93.10;;;;;;5075653;28;20196;-74
2023/03/06 04:33:22;;;;;;;6.97;5.30;;;4.70;93.00;;;;;;5075895;28;20167;-71
2023/03/06 04:35:48;;;;;;;6.60;5.30;;;4.70;93.20;;;;;;5075601;28;20232;-75
2023/03/06 04:38:13;;;;;;;6.50;4.93;;;4.60;93.00;;;;;;5075932;28;20622;-70
2023/03/06 04:40:39;;;;;;;7.13;5.40;;;4.50;93.20;;;;;;5076467;28;20263;-77
2023/03/06 04:43:05;;;;;;;5.73;4.80;;;4.70;93.40;;;;;;5078116;28;20228;-76
2023/03/06 04:45:31;;;;;;;7.77;5.53;;;4.70;93.30;;;;;;5079734;28;20223;-75
2023/03/06 04:47:58;;;;;;;6.37;5.07;;;4.60;93.10;;;;;;5075997;28;20166;-72
2023/03/06 04:50:26;;;;;;;7.17;5.50;;;4.50;93.10;;;;;;5074828;28;20272;-74
2023/03/06 04:52:52;;;;;;;8.30;5.27;;;4.40;93.50;;;;;;5076227;28;20171;-75
2023/03/06 04:55:19;;;;;;;7.00;5.73;;;4.50;93.40;;;;;;5075203;28;20181;-75
2023/03/06 04:57:46;;;;;;;9.83;5.63;;;4.50;93.50;;;;;;5073828;28;20174;-77
2023/03/06 05:00:14;;;;;;;7.97;5.63;;;4.60;93.30;;;;;;5075502;28;20244;-71
2023/03/06 05:02:42;;;;;;;7.43;5.67;;;4.70;93.30;;;;;;5073731;28;20179;-74
2023/03/06 05:05:09;;;;;;;5.90;5.30;;;4.70;93.20;;;;;;5073996;28;20828;-73
2023/03/06 05:07:36;;;;;;;9.47;5.87;;;4.70;93.20;;;;;;5075059;28;20172;-73
2023/03/06 05:10:02;;;;;;;6.80;5.63;;;4.70;93.40;;;;;;5073565;28;20175;-78
2023/03/06 05:12:28;;;;;;;6.33;5.27;;;4.80;93.00;;;;;;5073677;28;20705;-74
2023/03/06 05:14:54;;;;;;;8.30;5.83;;;4.80;93.20;;;;;;5074745;28;20175;-70
2023/03/06 05:17:20;;;;;;;6.00;5.17;;;4.80;93.30;;;;;;5074165;28;20178;-74
2023/03/06 05:19:45;;;;;;;8.70;6.23;;;4.90;93.40;;;;;;5073655;28;20619;-75
2023/03/06 05:22:11;;;;;;;8.50;5.43;;;4.80;93.50;;;;;;5074659;28;20171;-76
2023/03/06 05:24:37;;;;;;;8.63;6.13;;;4.80;93.30;;;;;;5074834;28;20289;-76
2023/03/06 05:27:03;;;;;;;7.87;5.00;;;4.80;93.20;;;;;;5074412;28;20178;-74
2023/03/06 05:29:29;;;;;;;6.47;5.13;;;4.90;93.10;;;;;;5074730;28;20178;-76
2023/03/06 05:31:57;;;;;;;8.40;5.80;;;4.70;93.00;;;;;;5074803;28;20182;-72
2023/03/06 05:34:23;;;;;;;5.90;5.27;;;4.80;93.10;;;;;;5074621;28;20724;-74
2023/03/06 05:36:49;;;;;;;8.70;5.63;;;4.80;93.10;;;;;;5073966;28;20258;-73
2023/03/06 05:39:15;;;;;;;8.07;5.90;;;4.80;93.30;;;;;;5073857;28;20213;-71
2023/03/06 05:41:41;;;;;;;7.83;5.37;;;4.80;93.10;;;;;;5074415;28;20196;-72
2023/03/06 05:44:06;;;;;;;10.10;5.93;;;4.80;93.00;;;;;;5074189;28;20228;-72
2023/03/06 05:46:32;;;;;;;7.10;5.70;;;4.70;93.00;;;;;;5076707;28;20257;-72
2023/03/06 05:48:58;;;;;;;7.77;5.77;;;4.70;93.10;;;;;;5078518;28;20203;-73
2023/03/06 05:51:25;;;;;;;8.50;5.77;;;4.70;93.20;;;;;;5075596;28;20590;-74
2023/03/06 05:53:51;;;;;;;8.50;5.73;;;4.80;93.20;;;;;;5074710;28;20171;-71
2023/03/06 05:56:17;;;;;;;7.87;5.70;;;4.80;93.00;;;;;;5074751;28;20219;-71
2023/03/06 05:58:45;;;;;;;7.53;5.50;;;4.80;93.00;;;;;;5073400;28;20937;-75
2023/03/06 06:01:14;;;;;;;8.23;5.27;;;4.70;93.00;;;;;;5075497;28;20228;-72
2023/03/06 06:03:40;;;;;;;9.47;6.30;;;4.70;92.90;;;;;;5074998;28;20571;-73
2023/03/06 06:06:08;;;;;;;8.23;5.23;;;4.70;92.80;;;;;;5074788;28;20180;-71
2023/03/06 06:08:34;;;;;;;7.83;5.50;;;4.70;92.80;;;;;;5074443;28;20190;-71
2023/03/06 06:11:02;;;;;;;8.23;5.60;;;4.70;92.70;;;;;;5073936;28;20252;-71
2023/03/06 06:13:28;;;;;;;6.67;5.30;;;4.80;93.00;;;;;;5072490;28;20197;-74
2023/03/06 06:15:54;;;;;;;8.97;5.90;;;4.80;92.60;;;;;;5073857;28;20187;-76
2023/03/06 06:18:20;;;;;;;7.50;5.67;;;4.70;93.00;;;;;;5073649;28;20742;-72
2023/03/06 06:20:46;;;;;;;7.97;5.53;;;4.70;93.10;;;;;;5072527;28;20185;-74
2023/03/06 06:23:11;;;;;;;8.93;6.07;;;4.80;93.00;;;;;;5073497;28;20536;-73
2023/03/06 06:25:37;;;;;;;7.23;5.00;;;4.80;92.80;;;;;;5073619;28;20183;-73
2023/03/06 06:28:03;;;;;;;13.03;7.83;;;4.90;92.80;;;;;;5073502;28;20201;-75
2023/03/06 06:30:30;;;;;;;10.93;8.10;;;5.00;92.90;;;;;;5072489;28;20179;-73
2023/03/06 06:32:56;;;;;;;9.43;5.90;;;5.10;93.00;;;;;;5073727;28;20197;-73
2023/03/06 06:35:21;;;;;;;8.53;5.70;;;5.10;92.40;;;;;;5073469;28;20212;-72
2023/03/06 06:37:48;;;;;;;7.20;5.57;;;5.00;92.40;;;;;;5073266;28;20171;-74
2023/03/06 06:40:14;;;;;;;9.43;5.87;;;4.90;92.40;;;;;;5072240;28;20591;-72
2023/03/06 06:42:40;;;;;;;8.77;6.03;;;5.00;92.60;;;;;;5073256;28;20612;-72
2023/03/06 06:45:07;;;;;;;9.57;6.10;;;5.10;92.60;;;;;;5073655;28;20213;-75
2023/03/06 06:47:33;;;;;;;8.10;6.23;;;5.30;92.60;;;;;;5073439;28;20190;-79
2023/03/06 06:49:59;;;;;;;11.23;5.97;;;5.40;92.70;;;;;;5073983;28;20202;-72
2023/03/06 06:52:25;;;;;;;9.60;5.90;;;5.50;92.40;;;;;;5074165;28;20197;-72
2023/03/06 06:54:51;;;;;;;7.90;6.13;;;5.50;92.50;;;;;;5074453;28;20228;-72
2023/03/06 06:57:17;;;;;;;9.47;5.63;;;5.50;92.10;;;;;;5075062;28;20171;-72
2023/03/06 06:59:43;;;;;;;8.77;6.10;;;5.50;92.00;;;;;;5074296;28;20231;-72
2023/03/06 07:02:13;;;;;;;9.43;6.63;;;5.40;92.70;;;;;;5074015;28;20168;-72
2023/03/06 07:04:40;;;;;;;9.47;5.17;;;5.40;92.50;;;;;;5073345;28;20229;-74
2023/03/06 07:07:06;;;;;;;7.80;5.53;;;5.50;92.30;;;;;;5072831;28;20206;-73
2023/03/06 07:09:32;;;;;;;7.57;4.97;;;5.50;92.20;;;;;;5073300;28;20180;-73
2023/03/06 07:11:58;;;;;;;8.67;5.77;;;5.40;92.20;;;;;;5072388;28;20688;-71
2023/03/06 07:14:24;;;;;;;8.97;6.63;;;5.50;92.30;;;;;;5072877;28;20182;-72
2023/03/06 07:16:52;;;;;;;8.20;5.57;;;5.40;92.10;;;;;;5072853;28;20202;-74
2023/03/06 07:19:18;;;;;;;8.57;6.30;;;5.30;92.20;;;;;;5073741;28;20259;-71
2023/03/06 07:21:45;;;;;;;7.57;5.77;;;5.30;92.30;;;;;;5073539;28;20250;-72
2023/03/06 07:24:11;;;;;;;9.17;6.17;;;5.30;92.60;;;;;;5077665;28;20241;-72
2023/03/06 07:26:37;;;;;;;9.93;5.57;;;5.40;92.40;;;;;;5087539;28;20163;-74
2023/03/06 07:29:03;;;;;;;8.30;5.60;;;5.50;92.40;;;;;;5080422;28;20704;-75
2023/03/06 07:31:29;;;;;;;9.87;6.23;;;5.40;92.50;;;;;;5073772;28;20202;-71
2023/03/06 07:33:55;;;;;;;8.70;5.87;;;5.50;92.60;;;;;;5073681;28;20170;-77
2023/03/06 07:36:25;;;;;;;8.10;6.03;;;5.50;92.90;;;;;;5073081;28;20256;-74
2023/03/06 07:38:50;;;;;;;12.53;7.20;;;5.60;92.40;;;;;;5072354;28;20177;-75
2023/03/06 07:41:17;;;;;;;7.70;5.27;;;5.70;92.50;;;;;;5072418;28;20167;-76
2023/03/06 07:43:44;;;;;;;8.80;5.83;;;6.00;92.30;;;;;;5072138;28;20330;-80
2023/03/06 07:46:11;;;;;;;9.93;6.20;;;6.00;91.90;;;;;;5070755;28;20187;-71
2023/03/06 07:48:37;;;;;;;6.87;5.93;;;5.90;91.90;;;;;;5072195;28;20534;-80
2023/03/06 07:51:15;;;;;;;8.77;6.20;;;5.90;91.90;;;;;;5072473;28;20261;-77
2023/03/06 07:53:42;;;;;;;9.63;6.10;;;6.00;92.00;;;;;;5073706;28;20174;-79
2023/03/06 07:56:08;;;;;;;7.93;5.27;;;6.10;92.10;;;;;;5073148;28;20200;-77
2023/03/06 07:58:39;;;;;;;10.50;6.13;;;6.10;92.40;;;;;;5072509;28;20183;-81
2023/03/06 08:01:08;;;;;;;7.17;5.80;;;6.30;92.50;;;;;;5072656;28;20684;-78
2023/03/06 08:03:34;;;;;;;8.10;5.80;;;6.50;92.10;;;;;;5071328;28;20194;-78
2023/03/06 08:06:05;;;;;;;7.53;5.57;;;6.50;92.20;;;;;;5072167;28;20249;-77
2023/03/06 08:08:33;;;;;;;7.20;6.27;;;6.60;92.40;;;;;;5071587;28;20172;-75
2023/03/06 08:10:59;;;;;;;8.97;6.60;;;6.80;92.30;;;;;;5072173;28;20581;-71
2023/03/06 08:13:25;;;;;;;9.83;6.10;;;6.90;92.30;;;;;;5071984;28;20175;-77
2023/03/06 08:15:50;;;;;;;6.97;5.67;;;7.00;91.70;;;;;;5072228;28;20249;-72
2023/03/06 08:18:16;;;;;;;11.43;6.10;;;7.00;91.70;;;;;;5072427;28;20178;-73
2023/03/06 08:20:42;;;;;;;11.23;6.20;;;7.00;91.80;;;;;;5072227;28;20194;-74
2023/03/06 08:23:08;;;;;;;7.90;6.07;;;7.00;91.40;;;;;;5072354;28;20252;-77
2023/03/06 08:25:34;;;;;;;9.67;6.20;;;7.00;91.70;;;;;;5072468;28;20206;-77
2023/03/06 08:28:00;;;;;;;7.60;5.80;;;7.00;93.30;;;;;;5072330;28;20179;-77
2023/03/06 08:30:26;;;;;;;11.10;6.20;;;7.10;92.30;;;;;;5072359;28;20169;-74
2023/03/06 08:32:52;;;;;;;10.87;6.33;;;7.20;91.30;;;;;;5071320;28;20171;-73
2023/03/06 08:35:17;;;;;;;7.90;5.87;;;7.20;91.40;;;;;;5072358;28;20177;-74
2023/03/06 08:37:43;;;;;;;9.10;6.20;;;7.40;91.30;;;;;;5071270;28;20181;-74
2023/03/06 08:40:10;;;;;;;9.07;6.53;;;7.50;91.50;;;;;;5072351;28;20184;-75
2023/03/06 08:42:35;;;;;;;7.80;6.10;;;7.50;91.80;;;;;;5072249;28;20359;-76
2023/03/06 08:45:01;;;;;;;9.67;5.93;;;7.70;91.90;;;;;;5072313;28;20288;-74
2023/03/06 08:47:27;;;;;;;7.70;5.87;;;7.90;91.60;;;;;;5071254;28;20209;-74
2023/03/06 08:49:52;;;;;;;9.77;6.40;;;8.10;91.20;;;;;;5073960;28;20185;-75
2023/03/06 08:52:18;;;;;;;8.17;6.00;;;8.20;91.40;;;;;;5073036;28;20191;-74
2023/03/06 08:54:44;;;;;;;9.13;6.17;;;8.20;91.50;;;;;;5073935;28;20542;-74
2023/03/06 08:57:10;;;;;;;9.17;6.23;;;8.20;91.20;;;;;;5073926;28;20188;-75
2023/03/06 08:59:36;;;;;;;12.03;7.87;;;8.20;91.20;;;;;;5073194;28;20609;-73
2023/03/06 09:02:02;;;;;;;9.40;6.67;;;8.30;90.20;;;;;;5086188;28;20244;-74
2023/03/06 09:04:29;;;;;;;9.60;6.17;;;8.40;90.40;;;;;;5087034;28;20205;-74
2023/03/06 09:06:55;;;;;;;10.50;6.37;;;8.40;90.40;;;;;;5076627;28;20269;-77
2023/03/06 09:09:21;;;;;;;10.90;6.57;;;8.40;90.60;;;;;;5072328;28;20266;-73
2023/03/06 09:11:46;;;;;;;8.40;6.43;;;8.40;90.50;;;;;;5071895;28;20170;-74
2023/03/06 09:14:13;;;;;;;10.30;7.20;;;8.30;90.60;;;;;;5072841;28;20186;-75
2023/03/06 09:16:38;;;;;;;8.30;6.57;;;8.40;90.50;;;;;;5075637;28;20177;-76
2023/03/06 09:19:04;;;;;;;9.20;6.27;;;8.50;90.40;;;;;;5075548;28;20206;-75
2023/03/06 09:21:30;;;;;;;10.03;6.20;;;8.50;90.20;;;;;;5075615;28;20181;-73
2023/03/06 09:23:56;;;;;;;9.33;7.10;;;8.50;90.90;;;;;;5075405;28;20575;-74
2023/03/06 09:26:22;;;;;;;10.40;7.07;;;8.40;90.60;;;;;;5075768;28;20181;-73
2023/03/06 09:28:48;;;;;;;9.53;6.97;;;8.50;91.10;;;;;;5075403;28;20177;-75
2023/03/06 09:31:18;;;;;;;11.13;7.20;;;8.50;90.20;;;;;;5075501;28;20226;-75
2023/03/06 09:33:44;;;;;;;9.30;7.27;;;8.40;90.30;;;;;;5074255;28;20197;-74
2023/03/06 09:36:19;;;;;;;10.80;7.27;;;8.20;90.20;;;;;;5076338;28;20223;-74
2023/03/06 09:38:47;;;;;;;9.40;7.00;;;8.30;90.80;;;;;;5075319;28;20267;-72
2023/03/06 09:41:34;;;;;;;12.40;6.90;;;8.30;91.10;;;;;;5074925;28;20173;-74
2023/03/06 09:44:15;;;;;;;10.00;6.87;;;8.50;91.40;;;;;;5074875;28;20232;-73
2023/03/06 09:46:49;;;;;;;11.23;7.23;;;8.50;90.60;;;;;;5075268;28;20209;-74
2023/03/06 09:49:38;;;;;;;9.13;6.67;;;8.50;90.40;;;;;;5075152;28;20169;-75
2023/03/06 09:52:27;;;;;;;13.10;7.37;;;8.50;90.50;;;;;;5075747;28;20645;-76
2023/03/06 09:55:01;;;;;;;8.87;6.40;;;8.60;90.20;;;;;;5074273;28;20229;-73
2023/03/06 09:57:36;;;;;;;10.07;7.63;;;8.60;90.20;;;;;;5074863;28;20757;-81
2023/03/06 10:00:10;;;;;;;13.37;7.03;;;8.60;90.80;;;;;;5074653;28;20172;-77
2023/03/06 10:02:44;;;;;;;10.87;7.57;;;8.70;90.30;;;;;;5074882;28;20260;-79
2023/03/06 10:05:23;;;;;;;10.83;6.57;;;8.80;90.10;;;;;;5074487;28;20293;-76
2023/03/06 10:08:13;;;;;;;14.57;7.30;;;8.70;90.10;;;;;;5075010;28;20161;-78
2023/03/06 10:10:47;;;;;;;12.30;7.63;;;8.70;90.50;;;;;;5074574;28;20530;-73
2023/03/06 10:13:41;;;;;;;10.53;7.33;;;8.80;90.50;;;;;;5074744;28;20204;-74
2023/03/06 10:16:30;;;;;;;10.87;7.27;;;9.00;90.00;;;;;;5074643;28;20165;-75
2023/03/06 10:19:02;;;;;;;19.10;7.90;;;9.00;90.30;;;;;;5074482;28;20196;-75
2023/03/06 10:21:42;;;;;;;12.80;8.33;;;9.00;90.10;;;;;;5074607;28;20163;-78
2023/03/06 10:24:39;;;;;;;13.50;8.33;;;9.10;89.70;;;;;;5076168;28;20259;-79
2023/03/06 10:27:42;;;;;;;11.00;7.67;;;9.00;89.30;;;;;;5076180;28;20184;-78
2023/03/06 10:30:08;;;;;;;10.97;6.97;;;8.90;89.70;;;;;;5074454;28;20174;-74
2023/03/06 10:32:53;;;;;;;14.27;7.83;;;8.80;90.10;;;;;;5073483;28;20189;-78
2023/03/06 10:35:38;;;;;;;12.33;7.93;;;9.00;90.30;;;;;;5075895;28;20545;-75
2023/03/06 10:38:20;;;;;;;13.47;7.70;;;9.20;90.40;;;;;;5084691;28;20170;-75
2023/03/06 10:41:09;;;;;;;11.73;8.10;;;9.50;89.70;;;;;;5093261;28;20179;-75
2023/03/06 10:43:55;;;;;;;10.67;7.83;;;9.50;90.20;;;;;;5078970;28;20662;-75
2023/03/06 10:46:33;;;;;;;14.93;8.70;;;9.60;90.20;;;;;;5074281;28;20171;-74
2023/03/06 10:49:02;;;;;;;13.13;7.93;;;9.80;89.60;;;;;;5075777;28;20203;-74
2023/03/06 10:51:29;;;;;;;11.60;7.83;;;9.90;89.20;;;;;;5076259;28;20186;-78
2023/03/06 10:53:54;;;;;;;12.63;7.87;;;10.00;88.40;;;;;;5073915;28;20635;-76
2023/03/06 10:56:34;;;;;;;11.87;8.23;;;10.10;87.80;;;;;;5074859;28;20212;-79
2023/03/06 10:59:16;;;;;;;11.37;7.57;;;10.20;88.40;;;;;;5074160;28;20180;-76
2023/03/06 11:01:43;;;;;;;11.50;8.00;;;10.20;88.50;;;;;;5073963;28;20193;-76
2023/03/06 11:04:45;;;;;;;12.97;7.90;;;9.80;89.40;;;;;;5074531;28;20200;-76
2023/03/06 11:07:18;;;;;;;11.33;7.67;;;10.00;89.00;;;;;;5076117;28;20160;-76
2023/03/06 11:09:56;;;;;;;12.73;8.20;;;10.20;89.20;;;;;;5083175;28;20181;-77
2023/03/06 11:12:58;;;;;;;13.83;8.57;;;10.40;87.80;;;;;;5074018;28;20667;-80
2023/03/06 11:15:25;;;;;;;11.13;8.10;;;10.50;87.40;;;;;;5063644;28;20186;-74
2023/03/06 11:18:18;;;;;;;10.50;8.10;;;10.60;87.60;;;;;;5073480;28;20170;-73
2023/03/06 11:20:46;;;;;;;11.17;8.23;;;10.50;87.20;;;;;;5073446;28;20165;-74
2023/03/06 11:23:36;;;;;;;11.73;7.70;;;10.40;86.70;;;;;;5073090;28;20576;-74
2023/03/06 11:26:13;;;;;;;11.33;8.17;;;10.40;87.20;;;;;;5073150;28;20171;-77
2023/03/06 11:28:44;;;;;;;11.13;7.97;;;10.20;86.40;;;;;;5073058;28;20219;-74
2023/03/06 11:31:24;;;;;;;10.93;7.70;;;10.10;87.10;;;;;;5073012;28;21031;-76
2023/03/06 11:34:18;;;;;;;12.80;8.27;;;10.10;87.80;;;;;;5073151;28;20915;-76
2023/03/06 11:36:59;;;;;;;11.17;7.67;;;10.10;88.30;;;;;;5073348;28;20171;-77
2023/03/06 11:39:50;;;;;;;10.63;7.50;;;10.20;88.30;;;;;;5073300;28;20181;-77
2023/03/06 11:42:55;;;;;;;9.93;7.33;;;10.20;89.00;;;;;;5073490;28;20285;-72
2023/03/06 11:45:30;;;;;;;14.13;8.87;;;10.30;88.20;;;;;;5010871;28;20239;-78
2023/03/06 11:48:08;;;;;;;13.17;8.67;;;10.20;87.50;;;;;;5012059;28;20191;-75
2023/03/06 11:50:39;;;;;;;13.50;8.37;;;10.20;87.60;;;;;;5010697;28;20190;-74
2023/03/06 11:53:10;;;;;;;11.00;8.13;;;10.20;87.40;;;;;;5011490;28;20196;-75
2023/03/06 11:55:48;;;;;;;13.63;8.40;;;10.30;87.60;;;;;;5010739;28;20223;-76
2023/03/06 11:59:02;;;;;;;14.43;8.97;;;10.30;87.40;;;;;;5010512;28;20168;-76
2023/03/06 12:01:54;;;;;;;13.67;8.13;;;10.30;87.70;;;;;;4988247;28;20700;-77
2023/03/06 12:04:40;;;;;;;10.47;7.57;;;10.40;87.10;;;;;;5010983;28;20216;-81
2023/03/06 12:07:09;;;;;;;14.37;8.70;;;10.40;87.90;;;;;;5011705;28;20750;-79
2023/03/06 12:09:56;;;;;;;15.63;9.23;;;10.50;87.80;;;;;;5011473;28;20181;-79
2023/03/06 12:12:56;;;;;;;12.60;7.97;;;10.50;87.00;;;;;;5011521;28;20189;-78
2023/03/06 12:15:56;;;;;;;14.47;8.23;;;10.50;87.10;;;;;;5020632;28;20189;-81
2023/03/06 12:18:38;;;;;;;11.43;8.13;;;10.40;88.50;;;;;;5016683;28;20165;-78
2023/03/06 12:21:15;;;;;;;13.47;7.97;;;10.40;87.60;;;;;;5047701;28;20643;-79
2023/03/06 12:23:50;;;;;;;14.23;8.37;;;10.40;88.30;;;;;;5072490;28;20164;-79
2023/03/06 12:26:24;;;;;;;12.43;8.60;;;10.50;87.90;;;;;;5072360;28;20654;-74
2023/03/06 12:28:58;;;;;;;14.27;8.83;;;10.40;88.10;;;;;;5072180;28;20177;-75
2023/03/06 12:31:59;;;;;;;10.37;7.47;;;10.50;88.90;;;;;;5072642;28;20162;-80
2023/03/06 12:34:37;;;;;;;11.77;7.60;;;10.70;88.70;;;;;;5010780;28;20263;-79
2023/03/06 12:37:44;;;;;;;12.20;8.27;;;10.70;88.70;;;;;;5017205;28;20223;-80
2023/03/06 12:40:18;;;;;;;11.77;8.10;;;10.60;87.50;;;;;;4983559;28;20221;-80
2023/03/06 12:42:50;;;;;;;11.33;7.97;;;10.60;87.60;;;;;;5005798;28;20264;-80
2023/03/06 12:45:21;;;;;;;13.70;8.00;;;10.60;87.50;;;;;;4981939;28;20218;-79
2023/03/06 12:47:49;;;;;;;14.33;8.33;;;10.50;88.70;;;;;;4974893;28;20194;-78
2023/03/06 12:50:44;;;;;;;10.60;7.70;;;10.50;89.10;;;;;;4992780;28;20190;-82
2023/03/06 12:53:27;;;;;;;11.23;7.57;;;10.50;89.80;;;;;;4936291;29;20200;-81
2023/03/06 12:55:54;;;;;;;12.10;8.00;;;10.50;90.00;;;;;;4936462;29;20703;-80
2023/03/06 12:58:28;;;;;;;14.03;8.57;;;10.50;88.90;;;;;;4936211;29;20190;-76
2023/03/06 13:01:26;;;;;;;13.53;8.63;;;10.50;89.10;;;;;;4936104;29;20184;-77
2023/03/06 13:04:03;;;;;;;13.77;8.50;;;10.50;88.80;;;;;;4936327;29;20592;-77
2023/03/06 13:07:10;;;;;;;12.23;8.37;;;10.60;88.30;;;;;;4920708;29;20188;-79
2023/03/06 13:10:04;;;;;;;11.87;8.57;;;10.50;89.10;;;;;;4972361;28;20229;-80